createdAt,value
2019-03-31T00:00:05.839Z,60.40
2019-03-31T00:02:52.795Z,60.30
2019-03-31T00:05:46.283Z,60.70
2019-03-31T00:08:30.902Z,60.80
2019-03-31T00:11:15.724Z,60.40
2019-03-31T00:14:00.596Z,60.70
2019-03-31T00:16:46.059Z,60.60
2019-03-31T00:19:39.535Z,59.90
2019-03-31T00:22:24.272Z,59.40
2019-03-31T00:25:09.140Z,58.60
2019-03-31T00:27:53.891Z,59.00
2019-03-31T00:30:38.436Z,59.60
2019-03-31T00:33:23.287Z,60.00
2019-03-31T00:36:08.279Z,60.60
2019-03-31T00:38:53.183Z,60.60
2019-03-31T00:41:38.139Z,59.90
2019-03-31T00:44:22.564Z,59.70
2019-03-31T00:47:07.204Z,59.70
2019-03-31T00:49:51.546Z,59.90
2019-03-31T00:52:44.687Z,61.00
2019-03-31T00:55:29.178Z,60.70
2019-03-31T00:58:13.304Z,61.00
2019-03-31T01:01:16.947Z,61.70
2019-03-31T01:04:03.543Z,62.10
2019-03-31T01:06:47.883Z,62.30
2019-03-31T01:09:33.375Z,62.40
2019-03-31T01:12:28.143Z,62.50
2019-03-31T01:15:15.643Z,62.60
2019-03-31T01:18:10.335Z,62.50
2019-03-31T01:20:55.008Z,62.50
2019-03-31T01:23:48.363Z,62.50
2019-03-31T01:26:33.157Z,63.00
2019-03-31T01:29:17.541Z,63.20
2019-03-31T01:32:02.175Z,63.20
2019-03-31T01:34:47.328Z,63.50
2019-03-31T01:37:31.995Z,63.80
2019-03-31T01:40:16.320Z,63.90
2019-03-31T01:43:09.271Z,64.50
2019-03-31T01:45:53.908Z,64.50
2019-03-31T01:48:38.483Z,64.10
2019-03-31T01:51:31.743Z,63.60
2019-03-31T01:54:16.363Z,63.60
2019-03-31T01:57:00.885Z,63.70
2019-03-31T01:59:45.451Z,63.70
2019-03-31T02:02:38.580Z,63.70
2019-03-31T02:05:23.211Z,64.90
2019-03-31T02:08:08.028Z,64.40
2019-03-31T02:10:53.035Z,64.50
2019-03-31T02:13:37.673Z,65.40
2019-03-31T02:16:22.609Z,65.50
2019-03-31T02:19:07.103Z,65.50
2019-03-31T02:21:51.963Z,65.20
2019-03-31T02:24:36.867Z,65.40
2019-03-31T02:27:21.607Z,65.50
2019-03-31T02:30:06.700Z,66.00
2019-03-31T02:32:51.849Z,66.60
2019-03-31T02:35:36.991Z,66.70
2019-03-31T02:38:30.201Z,66.70
2019-03-31T02:41:15.304Z,67.30
2019-03-31T02:43:59.576Z,67.10
2019-03-31T02:46:44.411Z,66.80
2019-03-31T02:49:29.205Z,66.30
2019-03-31T02:52:14.101Z,66.20
2019-03-31T02:54:58.517Z,66.90
2019-03-31T02:57:51.507Z,67.70
2019-03-31T03:00:36.141Z,68.80
2019-03-31T03:03:20.865Z,69.30
2019-03-31T03:06:05.584Z,69.70
2019-03-31T03:08:50.339Z,69.90
2019-03-31T03:11:36.168Z,70.00
2019-03-31T03:14:29.711Z,70.20
2019-03-31T03:17:14.371Z,69.40
2019-03-31T03:19:59.363Z,68.40
2019-03-31T03:22:43.881Z,68.10
2019-03-31T03:25:28.293Z,68.20
2019-03-31T03:28:21.524Z,68.70
2019-03-31T03:31:14.702Z,69.30
2019-03-31T03:33:52.831Z,69.50
2019-03-31T03:36:37.361Z,69.50
2019-03-31T03:39:22.077Z,69.40
2019-03-31T03:42:06.420Z,69.40
2019-03-31T03:44:59.519Z,69.50
2019-03-31T03:47:44.245Z,70.00
2019-03-31T03:50:29.159Z,70.80
2019-03-31T03:53:13.883Z,71.60
2019-03-31T03:55:58.364Z,72.00
2019-03-31T03:58:42.677Z,72.50
2019-03-31T04:01:36.540Z,73.50
2019-03-31T04:04:21.288Z,74.00
2019-03-31T04:07:05.928Z,74.50
2019-03-31T04:09:50.672Z,74.50
2019-03-31T04:12:35.853Z,74.20
2019-03-31T04:15:20.602Z,74.20
2019-03-31T04:18:05.491Z,74.70
2019-03-31T04:20:50.081Z,75.30
2019-03-31T04:23:35.387Z,75.20
2019-03-31T04:26:28.689Z,75.00
2019-03-31T04:29:13.382Z,74.40
2019-03-31T04:31:58.436Z,74.60
2019-03-31T04:34:43.272Z,75.10
2019-03-31T04:37:28.212Z,75.30
2019-03-31T04:40:12.495Z,76.30
2019-03-31T04:42:57.048Z,77.40
2019-03-31T04:45:41.734Z,78.20
2019-03-31T04:48:34.987Z,78.60
2019-03-31T04:51:20.120Z,79.00
2019-03-31T04:54:04.834Z,78.00
2019-03-31T04:56:50.695Z,76.40
2019-03-31T04:59:35.855Z,75.50
2019-03-31T05:02:20.083Z,75.20
2019-03-31T05:05:04.383Z,75.10
2019-03-31T05:07:57.998Z,75.00
2019-03-31T05:10:43.084Z,74.70
2019-03-31T05:13:28.053Z,74.70
2019-03-31T05:16:22.099Z,74.70
2019-03-31T05:19:15.995Z,75.00
2019-03-31T05:22:00.989Z,74.70
2019-03-31T05:24:45.387Z,74.60
2019-03-31T05:27:30.264Z,74.90
2019-03-31T05:30:14.840Z,75.10
2019-03-31T05:32:59.398Z,75.10
2019-03-31T05:35:43.776Z,75.30
2019-03-31T05:38:36.750Z,75.70
2019-03-31T05:41:21.295Z,75.90
2019-03-31T05:44:14.199Z,75.90
2019-03-31T05:46:58.764Z,76.10
2019-03-31T05:49:43.727Z,76.20
2019-03-31T05:52:28.199Z,76.20
2019-03-31T05:55:21.684Z,76.20
2019-03-31T05:58:06.472Z,76.20
2019-03-31T06:00:51.093Z,76.20
2019-03-31T06:03:35.967Z,76.00
2019-03-31T06:06:20.759Z,75.90
2019-03-31T06:09:06.159Z,75.70
2019-03-31T06:11:59.956Z,75.40
2019-03-31T06:14:44.659Z,74.80
2019-03-31T06:17:29.332Z,74.10
2019-03-31T06:20:13.856Z,73.70
2019-03-31T06:22:58.489Z,73.20
2019-03-31T06:25:42.932Z,72.80
2019-03-31T06:28:27.383Z,72.40
2019-03-31T06:31:20.819Z,72.20
2019-03-31T06:34:05.416Z,71.70
2019-03-31T06:36:49.887Z,71.20
2019-03-31T06:39:34.487Z,70.60
2019-03-31T06:42:27.974Z,69.80
2019-03-31T06:45:12.447Z,69.40
2019-03-31T06:47:56.863Z,68.60
2019-03-31T06:50:41.765Z,67.70
2019-03-31T06:53:26.495Z,67.20
2019-03-31T06:56:11.335Z,67.00
2019-03-31T06:58:56.671Z,66.20
2019-03-31T07:01:41.526Z,66.10
2019-03-31T07:04:26.162Z,65.90
2019-03-31T07:07:10.632Z,65.60
2019-03-31T07:09:55.415Z,64.00
2019-03-31T07:12:39.968Z,63.60
2019-03-31T07:15:33.062Z,63.20
2019-03-31T07:18:17.901Z,63.00
2019-03-31T07:21:03.036Z,62.60
2019-03-31T07:23:47.648Z,62.40
2019-03-31T07:26:32.503Z,62.00
2019-03-31T07:29:17.511Z,61.60
2019-03-31T07:32:02.371Z,61.20
2019-03-31T07:34:47.115Z,60.80
2019-03-31T07:37:31.816Z,60.40
2019-03-31T07:40:16.680Z,60.00
2019-03-31T07:43:01.542Z,60.00
2019-03-31T07:45:46.147Z,59.60
2019-03-31T07:48:32.004Z,59.40
2019-03-31T07:51:17.099Z,58.90
2019-03-31T07:54:01.887Z,58.40
2019-03-31T07:56:47.003Z,57.70
2019-03-31T07:59:31.775Z,57.70
2019-03-31T08:02:16.984Z,57.60
2019-03-31T08:05:10.651Z,57.50
2019-03-31T08:07:55.474Z,57.10
2019-03-31T08:10:40.427Z,56.40
2019-03-31T08:13:25.316Z,56.30
2019-03-31T08:16:09.487Z,56.10
2019-03-31T08:18:54.024Z,55.80
2019-03-31T08:21:38.703Z,55.40
2019-03-31T08:24:43.187Z,55.30
2019-03-31T08:27:28.292Z,55.10
2019-03-31T08:30:13.238Z,54.80
2019-03-31T08:33:07.144Z,54.30
2019-03-31T08:35:51.603Z,53.80
2019-03-31T08:38:36.072Z,53.80
2019-03-31T08:41:21.532Z,53.50
2019-03-31T08:44:06.143Z,53.40
2019-03-31T08:46:51.227Z,53.10
2019-03-31T08:49:36.072Z,52.20
2019-03-31T08:52:20.839Z,51.40
2019-03-31T08:55:05.959Z,50.20
2019-03-31T08:58:01.672Z,49.10
2019-03-31T09:01:05.719Z,48.30
2019-03-31T09:03:50.112Z,47.30
2019-03-31T09:06:34.972Z,46.90
2019-03-31T09:09:19.195Z,47.60
2019-03-31T09:12:03.840Z,47.10
2019-03-31T09:14:56.855Z,46.10
2019-03-31T09:17:41.407Z,44.80
2019-03-31T09:20:26.111Z,44.90
2019-03-31T09:23:11.119Z,43.80
2019-03-31T09:25:55.883Z,42.90
2019-03-31T09:28:40.478Z,42.00
2019-03-31T09:31:25.448Z,42.10
2019-03-31T09:34:10.471Z,41.50
2019-03-31T09:36:55.043Z,41.10
2019-03-31T09:39:39.612Z,40.20
2019-03-31T09:42:32.859Z,39.80
2019-03-31T09:45:17.284Z,39.70
2019-03-31T09:48:02.103Z,39.20
2019-03-31T09:50:46.694Z,38.50
2019-03-31T09:53:31.347Z,38.60
2019-03-31T09:56:24.777Z,37.90
2019-03-31T09:59:09.544Z,36.90
2019-03-31T10:01:54.202Z,37.20
2019-03-31T10:04:38.843Z,36.90
2019-03-31T10:07:23.970Z,36.20
2019-03-31T10:10:09.274Z,35.70
2019-03-31T10:13:02.823Z,35.30
2019-03-31T10:15:47.323Z,35.20
2019-03-31T10:18:32.031Z,34.80
2019-03-31T10:21:17.012Z,34.80
2019-03-31T10:24:02.176Z,33.80
2019-03-31T10:26:46.567Z,33.90
2019-03-31T10:29:31.218Z,33.90
2019-03-31T10:32:15.867Z,32.80
2019-03-31T10:35:02.924Z,32.50
2019-03-31T10:37:46.176Z,32.30
2019-03-31T10:40:30.503Z,32.40
2019-03-31T10:43:15.194Z,32.50
2019-03-31T10:45:59.949Z,32.10
2019-03-31T10:48:44.247Z,30.60
2019-03-31T10:51:37.794Z,31.10
2019-03-31T10:54:22.328Z,30.90
2019-03-31T10:57:06.490Z,30.60
2019-03-31T11:00:20.269Z,30.20
2019-03-31T11:03:05.128Z,29.80
2019-03-31T11:05:49.506Z,29.70
2019-03-31T11:08:34.099Z,29.20
2019-03-31T11:11:18.739Z,28.90
2019-03-31T11:14:03.547Z,29.10
2019-03-31T11:16:48.091Z,28.70
2019-03-31T11:19:42.247Z,27.50
2019-03-31T11:25:39.126Z,26.80
2019-03-31T11:28:23.827Z,26.60
2019-03-31T11:31:08.824Z,26.40
2019-03-31T11:33:52.327Z,26.30
2019-03-31T11:36:44.788Z,26.30
2019-03-31T11:39:29.034Z,26.00
2019-03-31T11:42:23.217Z,25.90
2019-03-31T11:45:16.442Z,25.40
2019-03-31T11:48:01.078Z,25.10
2019-03-31T11:50:45.652Z,24.80
2019-03-31T11:53:30.067Z,24.40
2019-03-31T11:56:23.770Z,24.50
2019-03-31T11:59:08.376Z,24.00
2019-03-31T12:01:52.954Z,23.70
2019-03-31T12:04:37.982Z,23.10
2019-03-31T12:07:28.195Z,23.50
2019-03-31T12:10:08.687Z,22.90
2019-03-31T12:12:53.337Z,22.40
2019-03-31T12:15:46.718Z,22.20
2019-03-31T12:18:31.247Z,22.30
2019-03-31T12:21:15.800Z,22.30
2019-03-31T12:24:00.528Z,22.00
2019-03-31T12:26:44.923Z,21.80
2019-03-31T12:29:38.777Z,21.50
2019-03-31T12:32:32.734Z,21.60
2019-03-31T12:35:17.233Z,21.80
2019-03-31T12:38:02.244Z,21.30
2019-03-31T12:40:46.664Z,21.30
2019-03-31T12:43:31.454Z,21.60
2019-03-31T12:46:15.966Z,21.70
2019-03-31T12:49:00.575Z,21.80
2019-03-31T12:51:55.236Z,21.70
2019-03-31T12:54:39.828Z,22.00
2019-03-31T12:57:24.563Z,21.80
2019-03-31T13:00:09.220Z,21.70
2019-03-31T13:02:53.748Z,21.60
2019-03-31T13:05:47.351Z,21.80
2019-03-31T13:08:32.403Z,21.90
2019-03-31T13:11:28.147Z,22.00
2019-03-31T13:14:22.102Z,22.20
2019-03-31T13:17:06.736Z,22.00
2019-03-31T13:19:51.107Z,22.10
2019-03-31T13:22:35.718Z,22.00
2019-03-31T13:25:20.438Z,22.90
2019-03-31T13:28:05.856Z,22.70
2019-03-31T13:30:50.628Z,22.50
2019-03-31T13:33:34.999Z,22.50
2019-03-31T13:36:20.135Z,22.70
2019-03-31T13:39:05.895Z,22.20
2019-03-31T13:41:59.312Z,21.90
2019-03-31T13:44:51.375Z,21.60
2019-03-31T13:47:43.499Z,21.10
2019-03-31T13:50:28.502Z,20.60
2019-03-31T13:53:21.991Z,20.60
2019-03-31T13:56:07.652Z,20.70
2019-03-31T13:59:00.946Z,20.60
2019-03-31T14:01:45.567Z,20.60
2019-03-31T14:04:30.431Z,20.00
2019-03-31T14:07:14.888Z,19.80
2019-03-31T14:09:57.469Z,19.90
2019-03-31T14:12:51.095Z,19.90
2019-03-31T14:15:35.435Z,19.30
2019-03-31T14:18:20.605Z,19.40
2019-03-31T14:21:05.107Z,19.50
2019-03-31T14:23:49.760Z,19.40
2019-03-31T14:26:34.106Z,19.10
2019-03-31T14:29:27.527Z,19.40
2019-03-31T14:32:12.047Z,19.80
2019-03-31T14:34:56.423Z,20.20
2019-03-31T14:37:49.871Z,20.90
2019-03-31T14:40:34.764Z,21.40
2019-03-31T14:43:19.660Z,21.90
2019-03-31T14:46:04.472Z,22.00
2019-03-31T14:48:48.875Z,22.10
2019-03-31T14:51:33.406Z,21.90
2019-03-31T14:54:18.266Z,22.00
2019-03-31T14:57:02.707Z,22.40
2019-03-31T14:59:55.774Z,22.60
2019-03-31T15:02:40.428Z,22.20
2019-03-31T15:05:25.279Z,21.80
2019-03-31T15:08:09.924Z,21.50
2019-03-31T15:10:54.408Z,21.30
2019-03-31T15:13:50.312Z,21.50
2019-03-31T15:16:34.694Z,21.60
2019-03-31T15:19:19.287Z,21.70
2019-03-31T15:22:03.888Z,22.30
2019-03-31T15:25:17.313Z,22.70
2019-03-31T15:28:02.000Z,22.50
2019-03-31T15:30:46.364Z,22.40
2019-03-31T15:33:40.190Z,22.50
2019-03-31T15:36:35.971Z,22.20
2019-03-31T15:39:35.560Z,22.10
2019-03-31T15:42:20.083Z,22.20
2019-03-31T15:45:04.787Z,21.80
2019-03-31T15:47:49.359Z,21.80
2019-03-31T15:50:34.003Z,21.80
2019-03-31T15:53:18.907Z,21.90
2019-03-31T15:56:04.175Z,22.20
2019-03-31T15:58:48.767Z,22.60
2019-03-31T16:01:33.603Z,22.80
2019-03-31T16:04:18.180Z,23.10
2019-03-31T16:07:03.364Z,23.40
2019-03-31T16:09:47.699Z,23.60
2019-03-31T16:12:32.347Z,23.90
2019-03-31T16:15:16.423Z,24.20
2019-03-31T16:18:00.976Z,24.40
2019-03-31T16:20:45.135Z,24.90
2019-03-31T16:23:29.855Z,24.90
2019-03-31T16:26:23.027Z,25.40
2019-03-31T16:29:16.979Z,25.50
2019-03-31T16:32:11.465Z,25.70
2019-03-31T16:34:56.087Z,25.80
2019-03-31T16:37:40.523Z,26.20
2019-03-31T16:40:25.214Z,26.20
2019-03-31T16:43:10.181Z,26.40
2019-03-31T16:45:55.090Z,26.60
2019-03-31T16:48:39.440Z,26.60
2019-03-31T16:51:32.759Z,26.80
2019-03-31T16:54:16.839Z,26.80
2019-03-31T16:57:09.963Z,26.90
2019-03-31T16:59:54.793Z,27.00
2019-03-31T17:02:39.823Z,27.00
2019-03-31T17:05:24.404Z,27.00
2019-03-31T17:08:08.983Z,27.30
2019-03-31T17:10:53.311Z,27.30
2019-03-31T17:13:46.536Z,27.40
2019-03-31T17:16:31.251Z,27.50
2019-03-31T17:19:16.088Z,27.50
2019-03-31T17:22:00.860Z,27.50
2019-03-31T17:24:45.371Z,28.00
2019-03-31T17:27:30.031Z,27.80
2019-03-31T17:30:14.419Z,27.90
2019-03-31T17:33:08.130Z,28.00
2019-03-31T17:35:52.451Z,28.20
2019-03-31T17:38:36.945Z,28.30
2019-03-31T17:41:21.916Z,28.30
2019-03-31T17:44:06.159Z,28.60
2019-03-31T17:46:59.538Z,28.70
2019-03-31T17:49:44.826Z,28.80
2019-03-31T17:52:29.291Z,29.40
2019-03-31T17:55:13.823Z,29.30
2019-03-31T17:57:58.760Z,29.70
2019-03-31T18:00:43.503Z,29.50
2019-03-31T18:03:28.175Z,29.70
2019-03-31T18:06:12.959Z,29.70
2019-03-31T18:08:57.711Z,29.60
2019-03-31T18:11:42.387Z,29.60
2019-03-31T18:14:27.109Z,30.00
2019-03-31T18:17:11.948Z,30.00
2019-03-31T18:19:56.679Z,30.30
2019-03-31T18:22:49.620Z,30.50
2019-03-31T18:25:34.380Z,30.30
2019-03-31T18:28:28.996Z,30.20
2019-03-31T18:31:13.798Z,30.70
2019-03-31T18:33:58.699Z,30.60
2019-03-31T18:36:43.269Z,31.00
2019-03-31T18:39:27.923Z,31.10
2019-03-31T18:42:12.754Z,30.90
2019-03-31T18:44:58.039Z,31.10
2019-03-31T18:47:42.183Z,31.50
2019-03-31T18:50:26.662Z,32.00
2019-03-31T18:53:14.523Z,32.30
2019-03-31T18:56:37.747Z,32.90
2019-03-31T18:59:49.172Z,32.80
2019-03-31T19:03:12.803Z,32.10
2019-03-31T19:06:16.580Z,31.80
2019-03-31T19:09:20.093Z,31.80
2019-03-31T19:12:23.180Z,32.60
2019-03-31T19:15:26.792Z,32.70
2019-03-31T19:18:30.603Z,32.70
2019-03-31T19:25:13.023Z,33.30
2019-03-31T19:28:33.801Z,34.00
2019-03-31T19:31:37.172Z,34.80
2019-03-31T19:34:40.943Z,34.80
2019-03-31T19:38:01.468Z,34.90
2019-03-31T19:41:05.478Z,35.50
2019-03-31T19:43:57.791Z,36.50
2019-03-31T19:47:01.289Z,37.40
2019-03-31T19:50:11.767Z,37.90
2019-03-31T19:53:32.351Z,38.20
2019-03-31T19:56:26.868Z,38.90
2019-03-31T19:59:30.445Z,39.90
2019-03-31T20:02:36.850Z,40.20
2019-03-31T20:05:57.895Z,40.20
2019-03-31T20:09:01.331Z,40.40
2019-03-31T20:12:06.404Z,40.70
2019-03-31T20:15:30.327Z,41.20
2019-03-31T20:18:45.231Z,41.50
2019-03-31T20:22:05.889Z,41.80
2019-03-31T20:25:09.315Z,42.20
2019-03-31T20:28:16.140Z,42.70
2019-03-31T20:31:45.338Z,43.20
2019-03-31T20:34:38.760Z,43.20
2019-03-31T20:37:30.304Z,43.20
2019-03-31T20:40:43.318Z,43.40
2019-03-31T20:43:37.423Z,43.40
2019-03-31T20:46:46.447Z,43.50
2019-03-31T20:49:31.483Z,43.60
2019-03-31T20:52:16.112Z,43.50
2019-03-31T20:55:15.358Z,44.10
2019-03-31T20:57:47.387Z,44.50
2019-03-31T21:00:32.054Z,44.80
2019-03-31T21:03:16.754Z,45.00
2019-03-31T21:06:01.359Z,45.30
2019-03-31T21:08:45.799Z,45.10
2019-03-31T21:11:39.111Z,45.30
2019-03-31T21:14:23.680Z,45.40
2019-03-31T21:17:08.687Z,45.70
2019-03-31T21:19:52.839Z,46.40
2019-03-31T21:22:37.406Z,46.90
2019-03-31T21:25:30.858Z,46.90
2019-03-31T21:28:15.595Z,47.20
2019-03-31T21:31:00.302Z,47.60
2019-03-31T21:33:44.792Z,48.10
2019-03-31T21:36:29.615Z,48.60
2019-03-31T21:39:14.195Z,48.90
2019-03-31T21:41:58.703Z,49.10
2019-03-31T21:44:51.999Z,49.10
2019-03-31T21:47:36.773Z,49.00
2019-03-31T21:50:21.375Z,49.00
2019-03-31T21:53:05.803Z,49.10
2019-03-31T21:56:01.332Z,49.30
2019-03-31T21:58:54.521Z,49.50
2019-03-31T22:01:39.238Z,49.60
2019-03-31T22:04:23.692Z,50.10
2019-03-31T22:07:17.318Z,50.60
2019-03-31T22:10:02.049Z,51.40
2019-03-31T22:12:46.164Z,51.70
2019-03-31T22:15:30.679Z,52.20
2019-03-31T22:18:24.012Z,52.70
2019-03-31T22:21:08.902Z,53.10
2019-03-31T22:23:58.150Z,53.00
2019-03-31T22:26:38.007Z,53.10
2019-03-31T22:29:22.558Z,53.20
2019-03-31T22:32:07.052Z,53.60
2019-03-31T22:35:01.139Z,54.70
2019-03-31T22:37:45.735Z,55.30
2019-03-31T22:40:30.093Z,55.60
2019-03-31T22:43:14.684Z,56.00
2019-03-31T22:45:59.155Z,56.10
2019-03-31T22:48:52.739Z,55.90
2019-03-31T22:51:37.423Z,56.40
2019-03-31T22:54:21.995Z,55.20
2019-03-31T22:57:06.818Z,55.50
2019-03-31T22:59:51.519Z,55.90
2019-03-31T23:02:35.871Z,56.80
2019-03-31T23:05:29.607Z,57.60
2019-03-31T23:08:14.552Z,58.70
2019-03-31T23:11:08.374Z,58.60
2019-03-31T23:13:52.867Z,59.10
2019-03-31T23:16:37.699Z,59.50
2019-03-31T23:19:22.508Z,59.90
2019-03-31T23:22:07.166Z,60.40
2019-03-31T23:24:51.624Z,60.60
2019-03-31T23:27:36.103Z,60.90
2019-03-31T23:30:29.819Z,61.40
2019-03-31T23:33:14.594Z,62.30
2019-03-31T23:35:59.199Z,62.60
2019-03-31T23:38:43.515Z,62.70
2019-03-31T23:41:28.415Z,63.10
2019-03-31T23:44:12.890Z,63.60
2019-03-31T23:46:58.078Z,63.60
2019-03-31T23:49:43.092Z,63.50
2019-03-31T23:52:27.610Z,63.40
2019-03-31T23:55:12.168Z,63.20
2019-03-31T23:57:56.923Z,63.00
